Aérodrome :
LOGIN :

S'inscrire | Disclaimer

   EN    FR    IT 

 










Légende :    VFR   VFR Marginal   IFR   IFR Intensif   IFR Très Intensif
Visi : 
Plafond : 
>= 8 km
>= 3000ft
5 à 8 km
1000 à 3000 ft
1500m à 5 km
500 à 1000 ft
800 à 1500m
200 à 500 ft
< 800m
< 200 ft
Symboles :   Orages  Brouillard  Fortes neiges  Fortes précipitations  Vent > 20 kt
SIGMETs :   Divers  Orages  Givrage  Turbulence  Onde Orograph.  Cendres Volcan.






- Altitude de l'aérodrome : 39 ft


ETNH - Hohn AB

DERNIER METAR :
  • 241520Z 24014KT 9000 BKN014 BKN030 17/14 Q1009 GRN

METARs EXPIRÉS :
  • 241420Z 24011KT 9000 BKN011 BKN030 17/15 Q1009 GRN
  • 241320Z 23011KT 9000 BKN011 BKN045 17/15 Q1009 GRN

TAF TAF ETNH
Valide du 24 à 11h jusqu'au 24 à 23h UTC


241000Z 2411/2423 25012KT 8000 NSW SCT015 BKN030
TEMPO 2411/2415 24015G28KT 2000 DZ BKN004
TEMPO 2415/2423 24012G22KT 4000 -DZ BKN012 BY ETGL



MET'MAP, la Météo Aéronautique d'un coup d'oeil ! - Copyright ORBIFLY Décembre 2007 - Disclaimer

ORBIFLY MET'MAP TEAM :

Programmation & Développement : Alexandra Zaïnal
Sur une idée originale de : Baudouin d'Aumeries
Assistance à la programmation : Marc-Olivier Méhu
Soutien technique & logistique : Manuel Goepfert

Contact : metmap@orbifly.com




SOURCES & CREDITS :

   NOAA